createdAt,value
2018-04-14T00:00:32.074Z,12.10
2018-04-14T00:02:59.627Z,12.10
2018-04-14T00:05:27.703Z,12.10
2018-04-14T00:07:55.525Z,12.20
2018-04-14T00:10:23.003Z,12.20
2018-04-14T00:12:50.575Z,12.20
2018-04-14T00:15:18.358Z,12.30
2018-04-14T00:17:45.888Z,12.30
2018-04-14T00:20:13.430Z,12.30
2018-04-14T00:22:41.005Z,12.30
2018-04-14T00:25:08.536Z,12.30
2018-04-14T00:27:37.262Z,12.40
2018-04-14T00:30:04.798Z,12.40
2018-04-14T00:32:32.523Z,12.40
2018-04-14T00:35:00.146Z,12.40
2018-04-14T00:37:27.675Z,12.40
2018-04-14T00:39:56.090Z,12.30
2018-04-14T00:42:24.241Z,12.30
2018-04-14T00:44:51.933Z,12.30
2018-04-14T00:47:19.647Z,12.40
2018-04-14T00:49:48.128Z,12.40
2018-04-14T00:52:16.150Z,12.30
2018-04-14T00:54:43.964Z,12.40
2018-04-14T00:57:11.903Z,12.40
2018-04-14T00:59:41.080Z,12.40
2018-04-14T01:02:09.532Z,12.40
2018-04-14T01:04:37.253Z,12.40
2018-04-14T01:07:05.871Z,12.30
2018-04-14T01:09:33.448Z,12.40
2018-04-14T01:12:01.350Z,12.40
2018-04-14T01:14:29.889Z,12.20
2018-04-14T01:16:57.612Z,12.20
2018-04-14T01:19:25.388Z,12.10
2018-04-14T01:21:52.999Z,12.10
2018-04-14T01:24:20.757Z,12.00
2018-04-14T01:26:48.889Z,11.90
2018-04-14T01:29:16.769Z,11.90
2018-04-14T01:31:44.729Z,11.80
2018-04-14T01:34:12.314Z,11.70
2018-04-14T01:36:40.245Z,11.70
2018-04-14T01:39:07.916Z,11.60
2018-04-14T01:41:35.723Z,11.60
2018-04-14T01:44:05.065Z,11.60
2018-04-14T01:46:33.251Z,11.60
2018-04-14T01:49:01.247Z,11.60
2018-04-14T01:51:28.920Z,11.70
2018-04-14T01:53:56.829Z,11.70
2018-04-14T01:56:24.699Z,11.70
2018-04-14T01:58:52.320Z,11.70
2018-04-14T02:01:20.659Z,11.80
2018-04-14T02:03:48.176Z,11.70
2018-04-14T02:06:15.819Z,11.70
2018-04-14T02:08:44.533Z,11.70
2018-04-14T02:11:12.109Z,11.70
2018-04-14T02:13:39.593Z,11.70
2018-04-14T02:16:07.349Z,11.70
2018-04-14T02:18:35.127Z,11.70
2018-04-14T02:21:02.609Z,11.70
2018-04-14T02:23:31.114Z,11.60
2018-04-14T02:25:59.083Z,11.60
2018-04-14T02:28:26.660Z,11.60
2018-04-14T02:30:54.445Z,11.70
2018-04-14T02:33:22.466Z,11.70
2018-04-14T02:35:50.230Z,11.60
2018-04-14T02:38:17.982Z,11.60
2018-04-14T02:40:46.704Z,11.60
2018-04-14T02:43:14.439Z,11.60
2018-04-14T02:45:42.063Z,11.70
2018-04-14T02:48:10.421Z,11.60
2018-04-14T02:50:38.015Z,11.60
2018-04-14T02:53:05.654Z,11.70
2018-04-14T02:55:33.562Z,11.70
2018-04-14T02:58:01.066Z,11.70
2018-04-14T03:00:28.687Z,11.70
2018-04-14T03:02:56.200Z,11.70
2018-04-14T03:05:24.776Z,11.50
2018-04-14T03:07:53.088Z,11.50
2018-04-14T03:10:20.811Z,11.40
2018-04-14T03:12:48.459Z,11.40
2018-04-14T03:15:16.880Z,11.30
2018-04-14T03:17:44.650Z,11.20
2018-04-14T03:20:12.203Z,11.20
2018-04-14T03:22:40.625Z,11.20
2018-04-14T03:25:08.163Z,11.10
2018-04-14T03:27:35.886Z,11.00
2018-04-14T03:30:04.399Z,10.90
2018-04-14T03:32:32.247Z,10.90
2018-04-14T03:34:59.911Z,10.90
2018-04-14T03:37:27.843Z,10.80
2018-04-14T03:39:57.962Z,10.70
2018-04-14T03:42:26.312Z,10.70
2018-04-14T03:44:53.968Z,10.60
2018-04-14T03:47:21.610Z,10.60
2018-04-14T03:49:49.406Z,10.60
2018-04-14T03:52:17.219Z,10.60
2018-04-14T03:54:45.013Z,10.60
2018-04-14T03:57:13.049Z,10.60
2018-04-14T03:59:40.636Z,10.50
2018-04-14T04:02:08.238Z,10.60
2018-04-14T04:04:36.849Z,10.50
2018-04-14T04:07:04.473Z,10.50
2018-04-14T04:09:32.934Z,10.60
2018-04-14T04:12:00.619Z,10.50
2018-04-14T04:14:29.052Z,10.60
2018-04-14T04:16:56.697Z,10.60
2018-04-14T04:19:36.178Z,10.60
2018-04-14T04:22:15.743Z,10.70
2018-04-14T04:24:56.064Z,10.80
2018-04-14T04:27:23.678Z,10.70
2018-04-14T04:29:51.545Z,10.80
2018-04-14T04:32:19.123Z,10.80
2018-04-14T04:34:46.773Z,10.90
2018-04-14T04:37:14.331Z,11.00
2018-04-14T04:39:42.029Z,10.90
2018-04-14T04:42:09.616Z,11.00
2018-04-14T04:44:38.029Z,11.00
2018-04-14T04:47:05.661Z,11.00
2018-04-14T04:49:33.450Z,11.00
2018-04-14T04:52:01.230Z,11.00
2018-04-14T04:54:28.714Z,11.10
2018-04-14T04:56:56.204Z,11.10
2018-04-14T04:59:23.730Z,11.10
2018-04-14T05:01:51.559Z,11.10
2018-04-14T05:04:19.344Z,11.00
2018-04-14T05:06:47.164Z,11.00
2018-04-14T05:09:14.669Z,11.00
2018-04-14T05:11:42.322Z,11.00
2018-04-14T05:14:09.987Z,11.00
2018-04-14T05:16:37.542Z,11.00
2018-04-14T05:19:05.092Z,11.00
2018-04-14T05:21:32.637Z,11.10
2018-04-14T05:24:00.271Z,11.20
2018-04-14T05:26:28.002Z,11.20
2018-04-14T05:28:56.296Z,11.40
2018-04-14T05:31:23.947Z,11.30
2018-04-14T05:33:52.475Z,11.50
2018-04-14T05:36:20.031Z,11.50
2018-04-14T05:38:47.775Z,11.50
2018-04-14T05:41:15.284Z,11.60
2018-04-14T05:43:43.161Z,11.60
2018-04-14T05:46:11.577Z,11.70
2018-04-14T05:48:39.184Z,11.70
2018-04-14T05:51:06.792Z,11.70
2018-04-14T05:53:34.552Z,11.70
2018-04-14T05:56:02.210Z,11.70
2018-04-14T05:58:29.976Z,11.80
2018-04-14T06:00:57.814Z,11.90
2018-04-14T06:03:25.603Z,12.10
2018-04-14T06:05:53.795Z,12.30
2018-04-14T06:08:21.533Z,12.60
2018-04-14T06:10:49.464Z,12.90
2018-04-14T06:13:17.741Z,13.30
2018-04-14T06:15:46.333Z,13.50
2018-04-14T06:18:14.622Z,13.60
2018-04-14T06:20:42.190Z,13.60
2018-04-14T06:23:09.808Z,13.80
2018-04-14T06:25:38.524Z,14.50
2018-04-14T06:28:06.109Z,14.50
2018-04-14T06:30:34.136Z,14.90
2018-04-14T06:33:02.662Z,15.10
2018-04-14T06:35:30.399Z,15.10
2018-04-14T06:37:58.122Z,15.00
2018-04-14T06:40:26.387Z,14.90
2018-04-14T06:42:54.208Z,14.90
2018-04-14T06:45:21.869Z,14.90
2018-04-14T06:47:49.411Z,14.60
2018-04-14T06:50:17.285Z,14.60
2018-04-14T06:52:45.018Z,14.60
2018-04-14T06:55:13.636Z,15.10
2018-04-14T06:57:41.390Z,15.10
2018-04-14T07:00:09.031Z,15.40
2018-04-14T07:02:36.817Z,15.70
2018-04-14T07:05:04.556Z,15.90
2018-04-14T07:07:32.290Z,16.10
2018-04-14T07:09:59.832Z,16.40
2018-04-14T07:12:28.521Z,16.70
2018-04-14T07:14:56.674Z,17.00
2018-04-14T07:17:24.401Z,17.50
2018-04-14T07:19:52.058Z,18.20
2018-04-14T07:22:19.713Z,18.80
2018-04-14T07:24:48.156Z,20.20
2018-04-14T07:27:15.923Z,20.20
2018-04-14T07:29:43.651Z,20.70
2018-04-14T07:32:11.308Z,21.10
2018-04-14T07:34:39.070Z,21.40
2018-04-14T07:37:06.917Z,21.40
2018-04-14T07:39:34.656Z,21.40
2018-04-14T07:42:03.251Z,21.90
2018-04-14T07:44:31.053Z,21.90
2018-04-14T07:46:58.660Z,22.30
2018-04-14T07:49:27.376Z,23.00
2018-04-14T07:51:54.909Z,23.00
2018-04-14T07:54:23.308Z,23.80
2018-04-14T07:56:50.899Z,23.80
2018-04-14T07:59:18.547Z,24.20
2018-04-14T08:01:46.155Z,24.40
2018-04-14T08:04:14.618Z,24.80
2018-04-14T08:06:42.649Z,24.70
2018-04-14T08:09:10.325Z,24.90
2018-04-14T08:11:38.247Z,24.90
2018-04-14T08:14:06.759Z,24.40
2018-04-14T08:16:34.898Z,24.40
2018-04-14T08:19:03.454Z,24.10
2018-04-14T08:21:31.156Z,24.10
2018-04-14T08:23:59.778Z,24.10
2018-04-14T08:26:27.356Z,23.90
2018-04-14T08:28:55.334Z,23.70
2018-04-14T08:31:23.917Z,22.90
2018-04-14T08:33:52.528Z,22.90
2018-04-14T08:36:20.152Z,22.80
2018-04-14T08:38:47.875Z,22.70
2018-04-14T08:41:15.432Z,22.30
2018-04-14T08:43:43.066Z,22.10
2018-04-14T08:46:10.929Z,22.00
2018-04-14T08:48:38.615Z,22.00
2018-04-14T08:51:07.417Z,22.30
2018-04-14T08:53:36.280Z,22.70
2018-04-14T08:56:04.795Z,22.70
2018-04-14T08:58:32.559Z,23.10
2018-04-14T09:01:00.521Z,23.70
2018-04-14T09:03:28.056Z,24.10
2018-04-14T09:05:55.558Z,23.90
2018-04-14T09:08:24.149Z,23.60
2018-04-14T09:10:51.684Z,23.50
2018-04-14T09:13:19.199Z,23.00
2018-04-14T09:15:47.028Z,22.60
2018-04-14T09:18:15.664Z,22.00
2018-04-14T09:20:43.470Z,22.00
2018-04-14T09:23:12.021Z,22.30
2018-04-14T09:25:39.705Z,22.20
2018-04-14T09:28:08.472Z,24.00
2018-04-14T09:30:36.179Z,24.00
2018-04-14T09:33:03.889Z,24.60
2018-04-14T09:35:31.728Z,24.80
2018-04-14T09:37:59.483Z,24.60
2018-04-14T09:40:27.415Z,24.30
2018-04-14T09:42:55.791Z,23.70
2018-04-14T09:45:23.394Z,23.60
2018-04-14T09:47:50.989Z,23.60
2018-04-14T09:50:18.820Z,23.60
2018-04-14T09:52:46.509Z,23.90
2018-04-14T09:55:14.262Z,24.00
2018-04-14T09:57:41.907Z,23.90
2018-04-14T10:00:09.906Z,23.90
2018-04-14T10:02:43.305Z,23.60
2018-04-14T10:05:10.867Z,23.30
2018-04-14T10:07:38.392Z,22.80
2018-04-14T10:10:05.965Z,22.30
2018-04-14T10:12:33.474Z,22.00
2018-04-14T10:15:00.965Z,21.60
2018-04-14T10:17:28.524Z,21.40
2018-04-14T10:19:56.039Z,21.20
2018-04-14T10:22:23.601Z,21.20
2018-04-14T10:24:51.896Z,21.40
2018-04-14T10:27:19.517Z,21.90
2018-04-14T10:29:47.832Z,23.70
2018-04-14T10:32:15.565Z,23.70
2018-04-14T10:34:45.232Z,25.80
2018-04-14T10:37:12.760Z,25.80
2018-04-14T10:39:40.501Z,26.40
2018-04-14T10:42:09.669Z,26.60
2018-04-14T10:44:38.057Z,26.10
2018-04-14T10:47:05.579Z,26.10
2018-04-14T10:49:33.163Z,26.00
2018-04-14T10:52:01.640Z,26.30
2018-04-14T10:54:30.005Z,25.90
2018-04-14T10:56:58.281Z,25.40
2018-04-14T10:59:25.884Z,25.30
2018-04-14T11:01:53.578Z,25.10
2018-04-14T11:04:21.122Z,24.50
2018-04-14T11:06:48.872Z,24.20
2018-04-14T11:09:16.416Z,24.20
2018-04-14T11:11:44.075Z,24.00
2018-04-14T11:14:11.616Z,23.70
2018-04-14T11:16:40.223Z,23.30
2018-04-14T11:19:07.862Z,23.30
2018-04-14T11:21:35.376Z,23.10
2018-04-14T11:24:02.862Z,22.70
2018-04-14T11:26:30.371Z,22.70
2018-04-14T11:28:58.041Z,22.70
2018-04-14T11:31:25.602Z,22.60
2018-04-14T11:33:53.226Z,22.60
2018-04-14T11:36:20.938Z,22.80
2018-04-14T11:38:49.234Z,22.80
2018-04-14T11:41:17.854Z,22.50
2018-04-14T11:43:45.599Z,22.40
2018-04-14T11:46:13.134Z,22.20
2018-04-14T11:48:41.463Z,22.10
2018-04-14T11:51:08.973Z,22.10
2018-04-14T11:53:37.445Z,22.40
2018-04-14T11:56:05.757Z,22.60
2018-04-14T11:58:33.363Z,22.70
2018-04-14T12:01:01.156Z,22.90
2018-04-14T12:03:29.621Z,23.10
2018-04-14T12:05:57.866Z,22.90
2018-04-14T12:08:25.838Z,22.90
2018-04-14T12:10:53.487Z,22.90
2018-04-14T12:13:21.203Z,22.80
2018-04-14T12:15:48.930Z,22.70
2018-04-14T12:18:17.224Z,22.60
2018-04-14T12:20:45.549Z,22.70
2018-04-14T12:23:13.599Z,22.70
2018-04-14T12:25:41.364Z,22.90
2018-04-14T12:28:09.310Z,23.00
2018-04-14T12:30:37.691Z,23.20
2018-04-14T12:33:06.590Z,23.10
2018-04-14T12:35:34.428Z,23.10
2018-04-14T12:38:02.959Z,22.90
2018-04-14T12:40:30.685Z,22.90
2018-04-14T12:42:58.501Z,22.60
2018-04-14T12:45:26.690Z,22.40
2018-04-14T12:47:54.181Z,22.20
2018-04-14T12:50:21.860Z,22.20
2018-04-14T12:52:49.477Z,22.30
2018-04-14T12:55:16.966Z,22.50
2018-04-14T12:57:44.483Z,22.70
2018-04-14T13:00:12.091Z,22.70
2018-04-14T13:02:39.722Z,22.80
2018-04-14T13:05:08.097Z,22.80
2018-04-14T13:07:35.936Z,22.80
2018-04-14T13:10:05.092Z,22.70
2018-04-14T13:12:32.764Z,22.60
2018-04-14T13:15:00.347Z,22.70
2018-04-14T13:17:28.174Z,22.70
2018-04-14T13:19:55.780Z,22.60
2018-04-14T13:22:24.209Z,22.40
2018-04-14T13:24:51.991Z,22.40
2018-04-14T13:27:19.951Z,22.50
2018-04-14T13:29:47.451Z,22.60
2018-04-14T13:32:15.065Z,22.60
2018-04-14T13:34:42.620Z,22.50
2018-04-14T13:37:10.425Z,22.40
2018-04-14T13:39:37.983Z,22.50
2018-04-14T13:42:05.682Z,22.60
2018-04-14T13:44:34.117Z,22.60
2018-04-14T13:47:01.941Z,22.50
2018-04-14T13:49:29.518Z,22.30
2018-04-14T13:51:57.163Z,22.20
2018-04-14T13:54:24.711Z,22.20
2018-04-14T13:56:52.629Z,22.00
2018-04-14T13:59:20.252Z,22.00
2018-04-14T14:01:47.839Z,22.00
2018-04-14T14:04:16.182Z,21.90
2018-04-14T14:06:44.050Z,21.90
2018-04-14T14:09:11.917Z,21.90
2018-04-14T14:11:39.788Z,21.90
2018-04-14T14:14:07.347Z,22.00
2018-04-14T14:16:35.296Z,22.10
2018-04-14T14:19:03.058Z,22.10
2018-04-14T14:21:30.615Z,22.20
2018-04-14T14:23:58.540Z,22.40
2018-04-14T14:26:26.350Z,22.40
2018-04-14T14:28:54.071Z,22.30
2018-04-14T14:31:22.430Z,22.20
2018-04-14T14:33:50.139Z,22.10
2018-04-14T14:36:17.651Z,22.10
2018-04-14T14:38:45.942Z,22.00
2018-04-14T14:41:14.468Z,21.90
2018-04-14T14:43:42.090Z,21.80
2018-04-14T14:46:09.861Z,21.80
2018-04-14T14:48:37.534Z,21.80
2018-04-14T14:51:05.143Z,21.90
2018-04-14T14:53:32.857Z,21.70
2018-04-14T14:56:00.520Z,21.80
2018-04-14T14:58:28.490Z,21.90
2018-04-14T15:00:56.354Z,21.90
2018-04-14T15:03:24.109Z,21.90
2018-04-14T15:05:51.765Z,22.00
2018-04-14T15:08:19.349Z,21.90
2018-04-14T15:10:46.949Z,21.80
2018-04-14T15:13:15.190Z,21.70
2018-04-14T15:15:42.897Z,21.60
2018-04-14T15:18:11.265Z,21.70
2018-04-14T15:20:39.615Z,21.80
2018-04-14T15:23:07.243Z,21.80
2018-04-14T15:25:34.863Z,21.90
2018-04-14T15:28:03.289Z,22.00
2018-04-14T15:30:30.825Z,22.00
2018-04-14T15:33:00.615Z,22.00
2018-04-14T15:35:29.025Z,21.50
2018-04-14T15:37:56.547Z,21.50
2018-04-14T15:40:24.839Z,21.30
2018-04-14T15:42:52.388Z,21.30
2018-04-14T15:45:19.941Z,21.50
2018-04-14T15:47:48.451Z,21.50
2018-04-14T15:50:16.202Z,21.50
2018-04-14T15:52:43.788Z,21.40
2018-04-14T15:55:11.366Z,21.40
2018-04-14T15:57:38.887Z,21.30
2018-04-14T16:00:06.482Z,21.10
2018-04-14T16:02:34.160Z,21.00
2018-04-14T16:05:02.575Z,21.00
2018-04-14T16:07:30.334Z,20.90
2018-04-14T16:09:57.847Z,21.00
2018-04-14T16:12:25.338Z,21.00
2018-04-14T16:14:52.853Z,20.90
2018-04-14T16:17:20.551Z,20.80
2018-04-14T16:19:48.052Z,20.80
2018-04-14T16:22:15.635Z,20.80
2018-04-14T16:24:43.332Z,20.70
2018-04-14T16:27:11.160Z,20.60
2018-04-14T16:29:38.695Z,20.50
2018-04-14T16:32:06.232Z,20.50
2018-04-14T16:34:33.764Z,20.50
2018-04-14T16:37:01.908Z,20.40
2018-04-14T16:39:29.600Z,20.40
2018-04-14T16:41:57.158Z,20.40
2018-04-14T16:44:24.651Z,20.40
2018-04-14T16:46:52.701Z,20.30
2018-04-14T16:49:20.311Z,20.10
2018-04-14T16:51:47.783Z,20.10
2018-04-14T16:54:16.052Z,20.00
2018-04-14T16:56:44.328Z,20.00
2018-04-14T16:59:12.697Z,20.00
2018-04-14T17:01:40.215Z,19.90
2018-04-14T17:04:07.997Z,19.90
2018-04-14T17:06:35.649Z,19.80
2018-04-14T17:09:03.462Z,19.80
2018-04-14T17:11:31.062Z,19.60
2018-04-14T17:13:58.541Z,19.50
2018-04-14T17:16:26.280Z,19.50
2018-04-14T17:18:53.905Z,19.50
2018-04-14T17:21:21.585Z,19.50
2018-04-14T17:23:49.142Z,19.40
2018-04-14T17:26:16.679Z,19.30
2018-04-14T17:28:44.325Z,19.10
2018-04-14T17:31:12.693Z,18.90
2018-04-14T17:33:41.001Z,18.80
2018-04-14T17:36:09.682Z,18.70
2018-04-14T17:38:37.385Z,18.70
2018-04-14T17:41:04.905Z,18.60
2018-04-14T17:43:32.400Z,18.60
2018-04-14T17:46:00.141Z,18.50
2018-04-14T17:48:27.751Z,18.50
2018-04-14T17:50:56.184Z,18.40
2018-04-14T17:53:24.030Z,18.40
2018-04-14T17:55:51.586Z,18.40
2018-04-14T17:58:19.418Z,18.40
2018-04-14T18:00:47.754Z,18.40
2018-04-14T18:03:15.559Z,18.40
2018-04-14T18:05:44.946Z,18.20
2018-04-14T18:08:12.558Z,18.20
2018-04-14T18:10:40.229Z,18.20
2018-04-14T18:13:07.776Z,18.10
2018-04-14T18:15:35.359Z,18.10
2018-04-14T18:18:03.049Z,18.10
2018-04-14T18:20:31.345Z,17.90
2018-04-14T18:22:59.128Z,17.90
2018-04-14T18:25:26.783Z,17.90
2018-04-14T18:27:54.317Z,17.80
2018-04-14T18:30:22.718Z,17.70
2018-04-14T18:32:50.395Z,17.70
2018-04-14T18:35:17.917Z,17.60
2018-04-14T18:37:46.202Z,17.50
2018-04-14T18:40:13.757Z,17.50
2018-04-14T18:42:41.382Z,17.40
2018-04-14T18:45:09.915Z,17.40
2018-04-14T18:47:37.571Z,17.30
2018-04-14T18:50:05.357Z,17.30
2018-04-14T18:52:33.023Z,17.20
2018-04-14T18:55:00.530Z,17.20
2018-04-14T18:57:28.108Z,17.10
2018-04-14T18:59:55.761Z,17.10
2018-04-14T19:02:23.470Z,17.00
2018-04-14T19:04:51.659Z,17.00
2018-04-14T19:07:20.279Z,16.90
2018-04-14T19:09:48.037Z,16.90
2018-04-14T19:12:15.632Z,16.90
2018-04-14T19:14:43.283Z,16.80
2018-04-14T19:17:11.023Z,16.80
2018-04-14T19:19:38.867Z,16.80
2018-04-14T19:22:07.147Z,16.70
2018-04-14T19:24:34.936Z,16.70
2018-04-14T19:27:03.191Z,16.70
2018-04-14T19:29:30.904Z,16.60
2018-04-14T19:31:58.592Z,16.60
2018-04-14T19:34:27.025Z,16.60
2018-04-14T19:36:54.826Z,16.60
2018-04-14T19:39:23.347Z,16.50
2018-04-14T19:41:51.245Z,16.50
2018-04-14T19:44:18.829Z,16.50
2018-04-14T19:46:46.418Z,16.50
2018-04-14T19:49:14.096Z,16.40
2018-04-14T19:51:42.527Z,16.40
2018-04-14T19:54:10.045Z,16.40
2018-04-14T19:56:37.662Z,16.40
2018-04-14T19:59:05.953Z,16.30
2018-04-14T20:01:33.747Z,16.30
2018-04-14T20:04:01.636Z,16.30
2018-04-14T20:06:29.949Z,16.20
2018-04-14T20:08:57.623Z,16.20
2018-04-14T20:11:25.171Z,16.30
2018-04-14T20:13:53.023Z,16.30
2018-04-14T20:16:21.767Z,16.30
2018-04-14T20:18:49.331Z,16.30
2018-04-14T20:21:16.859Z,16.30
2018-04-14T20:23:44.456Z,16.30
2018-04-14T20:26:12.012Z,16.20
2018-04-14T20:28:40.558Z,16.10
2018-04-14T20:31:08.198Z,16.10
2018-04-14T20:33:36.535Z,16.10
2018-04-14T20:36:04.457Z,16.00
2018-04-14T20:38:32.247Z,16.00
2018-04-14T20:41:00.708Z,15.90
2018-04-14T20:43:28.523Z,15.90
2018-04-14T20:45:56.832Z,15.80
2018-04-14T20:48:24.455Z,15.80
2018-04-14T20:50:52.898Z,15.70
2018-04-14T20:53:20.565Z,15.60
2018-04-14T20:55:48.442Z,15.60
2018-04-14T20:58:16.976Z,15.50
2018-04-14T21:00:44.589Z,15.50
2018-04-14T21:03:12.188Z,15.40
2018-04-14T21:05:39.978Z,15.40
2018-04-14T21:08:07.558Z,15.40
2018-04-14T21:10:35.249Z,15.30
2018-04-14T21:13:02.819Z,15.30
2018-04-14T21:15:30.310Z,15.30
2018-04-14T21:17:57.816Z,15.20
2018-04-14T21:20:25.300Z,15.30
2018-04-14T21:22:52.866Z,15.20
2018-04-14T21:25:20.369Z,15.20
2018-04-14T21:27:47.958Z,15.20
2018-04-14T21:30:15.741Z,15.20
2018-04-14T21:32:43.242Z,15.20
2018-04-14T21:35:10.731Z,15.20
2018-04-14T21:37:38.227Z,15.20
2018-04-14T21:40:05.773Z,15.20
2018-04-14T21:42:33.302Z,15.20
2018-04-14T21:45:00.803Z,15.30
2018-04-14T21:47:28.283Z,15.30
2018-04-14T21:49:55.799Z,15.30
2018-04-14T21:52:23.322Z,15.40
2018-04-14T21:54:50.811Z,15.40
2018-04-14T21:57:18.298Z,15.40
2018-04-14T21:59:45.798Z,15.40
2018-04-14T22:02:13.290Z,15.40
2018-04-14T22:04:40.812Z,15.40
2018-04-14T22:07:09.070Z,15.50
2018-04-14T22:09:37.325Z,15.50
2018-04-14T22:12:04.807Z,15.50
2018-04-14T22:14:33.072Z,15.60
2018-04-14T22:17:01.350Z,15.60
2018-04-14T22:19:29.618Z,15.60
2018-04-14T22:21:57.094Z,15.60
2018-04-14T22:24:24.593Z,15.60
2018-04-14T22:26:52.079Z,15.70
2018-04-14T22:29:19.604Z,15.60
2018-04-14T22:31:47.119Z,15.70
2018-04-14T22:34:15.354Z,15.60
2018-04-14T22:36:42.886Z,15.60
2018-04-14T22:39:10.375Z,15.70
2018-04-14T22:41:37.857Z,15.70
2018-04-14T22:44:06.088Z,15.70
2018-04-14T22:46:33.596Z,15.70
2018-04-14T22:49:01.092Z,15.70
2018-04-14T22:51:28.701Z,15.70
2018-04-14T22:53:57.210Z,15.60
2018-04-14T22:56:24.759Z,15.60
2018-04-14T22:58:52.289Z,15.60
2018-04-14T23:01:20.527Z,15.50
2018-04-14T23:03:48.030Z,15.50
2018-04-14T23:06:16.289Z,15.40
2018-04-14T23:08:43.781Z,15.40
2018-04-14T23:11:11.272Z,15.40
2018-04-14T23:13:38.882Z,15.40
2018-04-14T23:16:07.361Z,15.40
2018-04-14T23:18:34.848Z,15.40
2018-04-14T23:21:02.369Z,15.40
2018-04-14T23:23:30.617Z,15.50
2018-04-14T23:25:58.105Z,15.40
2018-04-14T23:28:25.620Z,15.40
2018-04-14T23:30:53.123Z,15.40
2018-04-14T23:33:21.851Z,15.40
2018-04-14T23:35:49.336Z,15.40
2018-04-14T23:38:16.826Z,15.40
2018-04-14T23:40:44.314Z,15.30
2018-04-14T23:43:11.798Z,15.30
2018-04-14T23:45:39.332Z,15.30
2018-04-14T23:48:06.845Z,15.30
2018-04-14T23:50:34.352Z,15.30
2018-04-14T23:53:01.849Z,15.30
2018-04-14T23:55:29.387Z,15.20
2018-04-14T23:57:56.878Z,15.20
